createdAt,value
2018-10-09T00:00:14.436Z,99.99
2018-10-09T00:01:14.711Z,99.99
2018-10-09T00:02:14.733Z,99.99
2018-10-09T00:03:14.744Z,99.99
2018-10-09T00:04:14.761Z,99.99
2018-10-09T00:05:14.779Z,99.99
2018-10-09T00:06:29.456Z,99.99
2018-10-09T00:07:14.812Z,99.99
2018-10-09T00:08:14.830Z,99.99
2018-10-09T00:09:14.851Z,99.99
2018-10-09T00:10:14.864Z,99.99
2018-10-09T00:11:14.883Z,99.99
2018-10-09T00:12:14.896Z,99.99
2018-10-09T00:14:14.934Z,99.99
2018-10-09T00:15:14.949Z,99.99
2018-10-09T00:16:14.712Z,99.99
2018-10-09T00:17:14.985Z,99.99
2018-10-09T00:18:14.998Z,99.99
2018-10-09T00:19:15.014Z,99.99
2018-10-09T00:20:15.033Z,99.99
2018-10-09T00:21:15.059Z,99.99
2018-10-09T00:22:29.728Z,99.99
2018-10-09T00:23:15.086Z,99.99
2018-10-09T00:24:15.101Z,99.99
2018-10-09T00:25:14.859Z,99.99
2018-10-09T00:26:15.374Z,99.99
2018-10-09T00:27:15.152Z,99.99
2018-10-09T00:28:15.167Z,99.99
2018-10-09T00:29:15.185Z,99.99
2018-10-09T00:30:15.203Z,99.99
2018-10-09T00:31:15.222Z,99.99
2018-10-09T00:32:14.978Z,99.99
2018-10-09T00:33:15.255Z,99.99
2018-10-09T00:34:15.268Z,99.99
2018-10-09T00:35:15.286Z,99.99
2018-10-09T00:36:15.303Z,99.99
2018-10-09T00:37:29.988Z,99.99
2018-10-09T00:38:15.340Z,99.99
2018-10-09T00:39:15.353Z,99.99
2018-10-09T00:40:15.370Z,99.99
2018-10-09T00:41:15.388Z,99.99
2018-10-09T00:42:15.405Z,99.99
2018-10-09T00:43:15.421Z,99.99
2018-10-09T00:44:15.181Z,99.99
2018-10-09T00:45:15.456Z,99.99
2018-10-09T00:46:15.470Z,99.99
2018-10-09T00:47:15.488Z,99.99
2018-10-09T00:48:15.507Z,99.99
2018-10-09T00:49:15.295Z,99.99
2018-10-09T00:50:15.547Z,99.99
2018-10-09T00:52:15.576Z,99.99
2018-10-09T00:53:15.333Z,99.99
2018-10-09T00:54:15.609Z,99.99
2018-10-09T00:55:15.724Z,99.99
2018-10-09T00:56:15.639Z,99.99
2018-10-09T00:57:15.658Z,99.99
2018-10-09T00:58:15.677Z,99.99
2018-10-09T00:59:15.694Z,99.99
2018-10-09T01:00:15.708Z,99.99
2018-10-09T01:01:15.724Z,99.99
2018-10-09T01:02:15.741Z,99.99
2018-10-09T01:03:15.501Z,99.99
2018-10-09T01:06:15.810Z,99.99
2018-10-09T01:07:15.826Z,99.99
2018-10-09T01:08:15.845Z,99.99
2018-10-09T01:09:30.520Z,99.99
2018-10-09T01:10:15.877Z,99.99
2018-10-09T01:11:15.893Z,99.99
2018-10-09T01:12:15.910Z,99.99
2018-10-09T01:13:15.930Z,99.99
2018-10-09T01:14:15.942Z,99.99
2018-10-09T01:16:15.975Z,99.99
2018-10-09T01:17:15.992Z,99.99
2018-10-09T01:18:16.010Z,99.99
2018-10-09T01:19:16.033Z,99.99
2018-10-09T01:21:16.061Z,99.99
2018-10-09T01:22:15.819Z,99.99
2018-10-09T01:23:16.097Z,99.99
2018-10-09T01:24:16.110Z,99.99
2018-10-09T01:25:30.789Z,99.99
2018-10-09T01:26:16.144Z,99.99
2018-10-09T01:27:16.160Z,99.99
2018-10-09T01:28:16.176Z,99.99
2018-10-09T01:29:16.194Z,99.99
2018-10-09T01:30:16.218Z,99.99
2018-10-09T01:31:16.230Z,99.99
2018-10-09T01:32:16.242Z,99.99
2018-10-09T01:33:16.264Z,99.99
2018-10-09T01:34:16.276Z,99.99
2018-10-09T01:35:16.296Z,99.99
2018-10-09T01:36:16.310Z,99.99
2018-10-09T01:37:16.329Z,99.99
2018-10-09T01:38:16.343Z,99.99
2018-10-09T01:39:16.102Z,99.99
2018-10-09T01:40:16.120Z,99.99
2018-10-09T01:41:31.054Z,99.99
2018-10-09T01:42:16.409Z,99.99
2018-10-09T01:43:16.427Z,99.99
2018-10-09T01:44:16.446Z,99.99
2018-10-09T01:45:16.463Z,99.99
2018-10-09T01:46:16.475Z,99.99
2018-10-09T01:47:16.493Z,99.99
2018-10-09T01:48:16.508Z,99.99
2018-10-09T01:50:16.541Z,99.99
2018-10-09T01:51:16.302Z,99.99
2018-10-09T01:52:16.577Z,99.99
2018-10-09T01:53:16.593Z,99.99
2018-10-09T01:54:16.610Z,99.99
2018-10-09T01:55:16.641Z,99.99
2018-10-09T01:56:16.640Z,99.99
2018-10-09T01:57:31.332Z,99.99
2018-10-09T01:58:16.675Z,99.99
2018-10-09T01:59:16.695Z,99.99
2018-10-09T02:00:16.712Z,99.99
2018-10-09T02:01:16.728Z,99.99
2018-10-09T02:02:16.485Z,99.99
2018-10-09T02:03:16.757Z,99.99
2018-10-09T02:04:16.774Z,99.99
2018-10-09T02:06:16.551Z,99.99
2018-10-09T02:07:16.823Z,99.99
2018-10-09T02:09:16.858Z,99.99
2018-10-09T02:10:16.880Z,99.99
2018-10-09T02:11:16.891Z,99.99
2018-10-09T02:12:31.569Z,99.99
2018-10-09T02:13:16.929Z,99.99
2018-10-09T02:14:16.979Z,99.99
2018-10-09T02:15:16.957Z,99.99
2018-10-09T02:16:16.974Z,99.99
2018-10-09T02:17:16.999Z,99.99
2018-10-09T02:18:17.006Z,99.99
2018-10-09T02:19:17.022Z,99.99
2018-10-09T02:20:17.039Z,99.99
2018-10-09T02:21:17.056Z,99.99
2018-10-09T02:22:17.075Z,99.99
2018-10-09T02:23:17.094Z,99.99
2018-10-09T02:24:17.105Z,99.99
2018-10-09T02:25:17.124Z,99.99
2018-10-09T02:26:17.138Z,99.99
2018-10-09T02:27:16.897Z,99.99
2018-10-09T02:28:17.172Z,99.99
2018-10-09T02:29:17.193Z,99.99
2018-10-09T02:30:17.205Z,99.99
2018-10-09T02:31:17.223Z,99.99
2018-10-09T02:32:17.246Z,99.99
2018-10-09T02:33:17.253Z,99.99
2018-10-09T02:34:17.270Z,99.99
2018-10-09T02:35:17.316Z,99.99
2018-10-09T02:36:17.302Z,99.99
2018-10-09T02:37:17.318Z,99.99
2018-10-09T02:38:17.338Z,99.99
2018-10-09T02:39:17.357Z,99.99
2018-10-09T02:40:17.111Z,99.99
2018-10-09T02:41:17.390Z,99.99
2018-10-09T02:42:17.404Z,99.99
2018-10-09T02:43:17.158Z,99.99
2018-10-09T02:44:32.094Z,99.99
2018-10-09T02:45:17.451Z,99.99
2018-10-09T02:46:17.470Z,99.99
2018-10-09T02:47:17.486Z,99.99
2018-10-09T02:48:17.499Z,99.99
2018-10-09T02:49:17.520Z,99.99
2018-10-09T02:50:17.534Z,99.99
2018-10-09T02:51:17.546Z,99.99
2018-10-09T02:52:17.590Z,99.99
2018-10-09T02:53:17.581Z,99.99
2018-10-09T02:54:17.595Z,99.99
2018-10-09T02:55:17.356Z,99.99
2018-10-09T02:56:17.629Z,99.99
2018-10-09T02:57:17.651Z,99.99
2018-10-09T02:58:17.661Z,99.99
2018-10-09T02:59:17.678Z,99.99
2018-10-09T03:00:32.356Z,99.99
2018-10-09T03:01:17.712Z,99.99
2018-10-09T03:02:17.472Z,99.99
2018-10-09T03:03:17.486Z,99.99
2018-10-09T03:04:17.760Z,99.99
2018-10-09T03:05:17.518Z,99.99
2018-10-09T03:06:17.803Z,99.99
2018-10-09T03:07:17.807Z,99.99
2018-10-09T03:08:17.579Z,99.99
2018-10-09T03:09:17.839Z,99.99
2018-10-09T03:11:17.875Z,99.99
2018-10-09T03:12:17.890Z,99.99
2018-10-09T03:13:17.914Z,99.99
2018-10-09T03:14:17.664Z,99.99
2018-10-09T03:15:17.937Z,99.99
2018-10-09T03:16:32.615Z,99.99
2018-10-09T03:17:17.969Z,99.99
2018-10-09T03:18:17.729Z,99.99
2018-10-09T03:19:18.002Z,99.99
2018-10-09T03:20:18.020Z,99.99
2018-10-09T03:21:17.777Z,99.99
2018-10-09T03:22:18.050Z,99.99
2018-10-09T03:23:18.069Z,99.99
2018-10-09T03:24:17.826Z,99.99
2018-10-09T03:26:18.115Z,99.99
2018-10-09T03:28:18.147Z,99.99
2018-10-09T03:29:18.164Z,99.99
2018-10-09T03:30:17.930Z,99.99
2018-10-09T03:31:18.196Z,99.99
2018-10-09T03:32:32.876Z,99.99
2018-10-09T03:33:18.229Z,99.99
2018-10-09T03:34:18.248Z,99.99
2018-10-09T03:35:18.264Z,99.99
2018-10-09T03:36:18.291Z,99.99
2018-10-09T03:37:18.298Z,99.99
2018-10-09T03:38:18.312Z,99.99
2018-10-09T03:39:18.328Z,99.99
2018-10-09T03:40:18.344Z,99.99
2018-10-09T03:41:18.358Z,99.99
2018-10-09T03:42:18.118Z,99.99
2018-10-09T03:43:18.389Z,99.99
2018-10-09T03:44:18.408Z,99.99
2018-10-09T03:45:18.423Z,99.99
2018-10-09T03:46:18.439Z,99.99
2018-10-09T03:47:33.117Z,99.99
2018-10-09T03:48:18.214Z,99.99
2018-10-09T03:49:18.488Z,99.99
2018-10-09T03:50:18.504Z,99.99
2018-10-09T03:51:18.520Z,99.99
2018-10-09T03:52:18.535Z,99.99
2018-10-09T03:53:18.294Z,99.99
2018-10-09T03:54:18.568Z,99.99
2018-10-09T03:55:18.585Z,99.99
2018-10-09T03:56:18.598Z,99.99
2018-10-09T03:57:18.620Z,99.99
2018-10-09T03:58:18.633Z,99.99
2018-10-09T03:59:18.648Z,99.99
2018-10-09T04:00:18.663Z,99.99
2018-10-09T04:01:18.680Z,99.99
2018-10-09T04:02:18.443Z,99.99
2018-10-09T04:03:18.715Z,99.99
2018-10-09T04:04:18.471Z,99.99
2018-10-09T04:05:18.743Z,99.99
2018-10-09T04:06:18.760Z,99.99
2018-10-09T04:07:18.820Z,99.99
2018-10-09T04:08:18.535Z,99.99
2018-10-09T04:09:18.842Z,99.99
2018-10-09T04:10:18.826Z,99.99
2018-10-09T04:11:18.844Z,99.99
2018-10-09T04:14:18.892Z,99.99
2018-10-09T04:16:18.923Z,99.99
2018-10-09T04:17:18.680Z,99.99
2018-10-09T04:18:18.696Z,99.99
2018-10-09T04:19:33.717Z,99.99
2018-10-09T04:20:18.985Z,99.99
2018-10-09T04:21:18.744Z,99.99
2018-10-09T04:22:19.021Z,99.99
2018-10-09T04:23:19.036Z,99.99
2018-10-09T04:24:19.057Z,99.99
2018-10-09T04:25:19.066Z,99.99
2018-10-09T04:26:19.079Z,99.99
2018-10-09T04:27:19.104Z,99.99
2018-10-09T04:28:19.118Z,99.99
2018-10-09T04:30:19.145Z,99.99
2018-10-09T04:31:19.162Z,99.99
2018-10-09T04:32:19.177Z,99.99
2018-10-09T04:33:19.191Z,99.99
2018-10-09T04:34:19.209Z,99.99
2018-10-09T04:35:33.936Z,99.99
2018-10-09T04:36:19.241Z,99.99
2018-10-09T04:37:19.260Z,99.99
2018-10-09T04:38:19.278Z,99.99
2018-10-09T04:39:19.296Z,99.99
2018-10-09T04:40:19.046Z,99.99
2018-10-09T04:41:19.319Z,99.99
2018-10-09T04:42:19.080Z,99.99
2018-10-09T04:43:19.355Z,99.99
2018-10-09T04:44:19.368Z,99.99
2018-10-09T04:45:19.407Z,99.99
2018-10-09T04:46:19.143Z,99.99
2018-10-09T04:48:19.174Z,99.99
2018-10-09T04:49:19.192Z,99.99
2018-10-09T04:50:19.471Z,99.99
2018-10-09T04:51:34.140Z,99.99
2018-10-09T04:52:19.238Z,99.99
2018-10-09T04:53:19.512Z,99.99
2018-10-09T04:54:19.528Z,99.99
2018-10-09T04:55:19.543Z,99.99
2018-10-09T04:56:19.560Z,99.99
2018-10-09T04:57:19.575Z,99.99
2018-10-09T04:59:19.608Z,99.99
2018-10-09T05:00:19.624Z,99.99
2018-10-09T05:01:19.639Z,99.99
2018-10-09T05:02:19.654Z,99.99
2018-10-09T05:03:19.671Z,99.99
2018-10-09T05:04:19.688Z,99.99
2018-10-09T05:05:19.704Z,99.99
2018-10-09T05:06:19.719Z,99.99
2018-10-09T05:07:34.397Z,99.99
2018-10-09T05:08:19.752Z,99.99
2018-10-09T05:09:19.771Z,99.99
2018-10-09T05:10:19.783Z,99.99
2018-10-09T05:11:19.798Z,99.99
2018-10-09T05:12:19.815Z,99.99
2018-10-09T05:13:19.829Z,99.99
2018-10-09T05:14:19.847Z,99.99
2018-10-09T05:15:19.864Z,99.99
2018-10-09T05:16:19.883Z,99.99
2018-10-09T05:17:19.894Z,99.99
2018-10-09T05:18:19.911Z,99.99
2018-10-09T05:19:19.927Z,99.99
2018-10-09T05:20:19.946Z,99.99
2018-10-09T05:21:19.959Z,99.99
2018-10-09T05:22:34.637Z,99.99
2018-10-09T05:23:20.063Z,99.99
2018-10-09T05:24:20.010Z,99.99
2018-10-09T05:25:20.025Z,99.99
2018-10-09T05:26:19.782Z,99.99
2018-10-09T05:27:20.057Z,99.99
2018-10-09T05:28:20.072Z,99.99
2018-10-09T05:30:20.107Z,99.99
2018-10-09T05:31:20.505Z,99.99
2018-10-09T05:33:20.151Z,99.99
2018-10-09T05:34:20.166Z,99.99
2018-10-09T05:35:20.181Z,99.99
2018-10-09T05:36:20.196Z,99.99
2018-10-09T05:37:20.218Z,99.99
2018-10-09T05:38:20.234Z,99.99
2018-10-09T05:39:20.247Z,99.99
2018-10-09T05:40:20.262Z,99.99
2018-10-09T05:41:20.281Z,99.99
2018-10-09T05:42:20.293Z,99.99
2018-10-09T05:43:20.317Z,99.99
2018-10-09T05:44:20.226Z,99.99
2018-10-09T05:45:20.343Z,99.99
2018-10-09T05:46:20.359Z,99.99
2018-10-09T05:47:20.380Z,99.99
2018-10-09T05:48:20.391Z,99.99
2018-10-09T05:49:20.413Z,99.99
2018-10-09T05:50:20.422Z,99.99
2018-10-09T05:51:20.181Z,99.99
2018-10-09T05:52:20.455Z,99.99
2018-10-09T05:53:20.473Z,99.99
2018-10-09T05:54:35.148Z,99.99
2018-10-09T05:55:20.509Z,99.99
2018-10-09T05:56:20.519Z,99.99
2018-10-09T05:57:20.535Z,99.99
2018-10-09T05:58:20.551Z,99.99
2018-10-09T05:59:20.568Z,99.99
2018-10-09T06:00:20.584Z,99.99
2018-10-09T06:01:20.609Z,99.99
2018-10-09T06:02:20.618Z,99.99
2018-10-09T06:04:20.653Z,99.99
2018-10-09T06:05:20.667Z,99.99
2018-10-09T06:06:20.681Z,99.99
2018-10-09T06:07:20.697Z,99.99
2018-10-09T06:08:20.715Z,99.99
2018-10-09T06:09:20.734Z,99.99
2018-10-09T06:10:35.408Z,99.99
2018-10-09T06:11:20.768Z,99.99
2018-10-09T06:12:20.779Z,99.99
2018-10-09T06:13:20.797Z,99.99
2018-10-09T06:14:20.818Z,99.99
2018-10-09T06:15:20.926Z,99.99
2018-10-09T06:16:20.845Z,99.99
2018-10-09T06:17:20.861Z,99.99
2018-10-09T06:18:20.620Z,99.99
2018-10-09T06:19:20.893Z,99.99
2018-10-09T06:20:20.915Z,99.99
2018-10-09T06:21:20.928Z,99.99
2018-10-09T06:22:21.153Z,99.99
2018-10-09T06:23:20.960Z,99.99
2018-10-09T06:24:20.982Z,99.99
2018-10-09T06:25:21.000Z,99.99
2018-10-09T06:26:35.670Z,99.99
2018-10-09T06:27:21.032Z,99.99
2018-10-09T06:28:21.168Z,99.99
2018-10-09T06:29:21.060Z,99.99
2018-10-09T06:30:20.818Z,99.99
2018-10-09T06:31:21.098Z,99.99
2018-10-09T06:32:21.110Z,99.99
2018-10-09T06:33:21.131Z,99.99
2018-10-09T06:34:21.143Z,99.99
2018-10-09T06:35:21.162Z,99.99
2018-10-09T06:36:21.279Z,99.99
2018-10-09T06:37:21.431Z,99.99
2018-10-09T06:38:21.232Z,99.99
2018-10-09T06:39:21.227Z,99.99
2018-10-09T06:40:21.288Z,99.99
2018-10-09T06:41:21.261Z,99.99
2018-10-09T06:42:36.034Z,99.99
2018-10-09T06:43:21.296Z,99.99
2018-10-09T06:44:21.421Z,99.99
2018-10-09T06:45:21.330Z,99.99
2018-10-09T06:46:21.352Z,99.99
2018-10-09T06:47:21.405Z,99.99
2018-10-09T06:48:21.380Z,99.99
2018-10-09T06:49:21.402Z,99.99
2018-10-09T06:50:21.415Z,99.99
2018-10-09T06:51:21.431Z,99.99
2018-10-09T06:52:21.450Z,99.99
2018-10-09T06:53:21.600Z,99.99
2018-10-09T06:54:21.298Z,99.99
2018-10-09T06:55:21.500Z,99.99
2018-10-09T06:56:21.526Z,99.99
2018-10-09T06:57:36.205Z,99.99
2018-10-09T06:58:21.560Z,99.99
2018-10-09T06:59:21.573Z,99.99
2018-10-09T07:00:21.888Z,99.99
2018-10-09T07:01:21.610Z,99.99
2018-10-09T07:02:21.371Z,99.99
2018-10-09T07:03:21.386Z,99.99
2018-10-09T07:05:21.688Z,99.99
2018-10-09T07:06:21.440Z,99.99
2018-10-09T07:07:21.717Z,99.99
2018-10-09T07:08:21.736Z,99.99
2018-10-09T07:09:21.849Z,99.99
2018-10-09T07:10:21.771Z,99.99
2018-10-09T07:11:22.054Z,99.99
2018-10-09T07:12:21.809Z,99.99
2018-10-09T07:13:21.829Z,99.99
2018-10-09T07:14:21.844Z,99.99
2018-10-09T07:15:21.914Z,99.99
2018-10-09T07:16:21.886Z,99.99
2018-10-09T07:17:21.898Z,99.99
2018-10-09T07:18:21.918Z,99.99
2018-10-09T07:19:21.937Z,99.99
2018-10-09T07:20:21.960Z,99.99
2018-10-09T07:21:21.974Z,99.99
2018-10-09T07:23:22.012Z,99.99
2018-10-09T07:24:22.032Z,99.99
2018-10-09T07:25:22.049Z,99.99
2018-10-09T07:26:22.067Z,99.99
2018-10-09T07:27:22.132Z,99.99
2018-10-09T07:28:22.115Z,99.99
2018-10-09T07:29:36.785Z,99.99
2018-10-09T07:30:22.149Z,99.99
2018-10-09T07:31:22.184Z,99.99
2018-10-09T07:32:22.184Z,99.99
2018-10-09T07:33:21.943Z,99.99
2018-10-09T07:34:22.226Z,99.99
2018-10-09T07:35:21.981Z,99.99
2018-10-09T07:36:22.263Z,99.99
2018-10-09T07:37:22.282Z,99.99
2018-10-09T07:40:22.077Z,99.99
2018-10-09T07:41:22.355Z,99.99
2018-10-09T07:42:22.376Z,99.99
2018-10-09T07:43:22.136Z,99.99
2018-10-09T07:44:22.565Z,99.99
2018-10-09T07:45:37.092Z,99.99
2018-10-09T07:46:22.218Z,99.99
2018-10-09T07:47:22.472Z,99.99
2018-10-09T07:48:22.491Z,99.99
2018-10-09T07:49:22.511Z,99.99
2018-10-09T07:51:22.293Z,99.99
2018-10-09T07:52:22.570Z,99.99
2018-10-09T07:53:22.592Z,99.99
2018-10-09T07:54:22.351Z,99.99
2018-10-09T07:56:22.650Z,99.99
2018-10-09T07:57:22.669Z,99.99
2018-10-09T07:58:22.689Z,99.99
2018-10-09T07:59:22.451Z,99.99
2018-10-09T08:00:22.475Z,99.99
2018-10-09T08:01:37.408Z,99.99
2018-10-09T08:02:22.770Z,99.99
2018-10-09T08:03:22.794Z,99.99
2018-10-09T08:04:22.552Z,99.99
2018-10-09T08:05:22.829Z,99.99
2018-10-09T08:06:22.849Z,99.99
2018-10-09T08:07:22.869Z,99.99
2018-10-09T08:08:22.888Z,99.99
2018-10-09T08:10:23.091Z,99.99
2018-10-09T08:11:22.958Z,99.99
2018-10-09T08:12:22.969Z,99.99
2018-10-09T08:13:22.991Z,99.99
2018-10-09T08:14:23.010Z,99.99
2018-10-09T08:15:23.034Z,99.99
2018-10-09T08:16:22.843Z,99.99
2018-10-09T08:17:37.731Z,99.99
2018-10-09T08:18:22.834Z,99.99
2018-10-09T08:19:23.122Z,99.99
2018-10-09T08:20:23.130Z,99.99
2018-10-09T08:21:22.894Z,99.99
2018-10-09T08:22:23.404Z,99.99
2018-10-09T08:23:23.192Z,99.99
2018-10-09T08:24:22.954Z,99.99
2018-10-09T08:25:23.232Z,99.99
2018-10-09T08:26:22.995Z,99.99
2018-10-09T08:27:23.271Z,99.99
2018-10-09T08:28:23.301Z,99.99
2018-10-09T08:29:23.316Z,99.99
2018-10-09T08:30:23.335Z,99.99
2018-10-09T08:31:23.355Z,99.99
2018-10-09T08:32:38.039Z,99.99
2018-10-09T08:33:23.398Z,99.99
2018-10-09T08:34:23.214Z,99.99
2018-10-09T08:35:23.436Z,99.75
2018-10-09T08:36:23.475Z,99.23
2018-10-09T08:37:23.479Z,98.47
2018-10-09T08:38:23.499Z,98.66
2018-10-09T08:39:23.523Z,97.61
2018-10-09T08:40:23.684Z,96.84
2018-10-09T08:41:23.552Z,96.8
2018-10-09T08:42:23.583Z,96.8
2018-10-09T08:43:23.612Z,96.42
2018-10-09T08:44:23.623Z,96.51
2018-10-09T08:45:23.647Z,96.03
2018-10-09T08:46:23.879Z,96.03
2018-10-09T08:47:23.693Z,95.75
2018-10-09T08:48:23.713Z,95.03
2018-10-09T08:49:23.731Z,95.32
2018-10-09T08:50:23.751Z,94.93
2018-10-09T08:51:23.774Z,93.88
2018-10-09T08:53:23.823Z,92.3
2018-10-09T08:54:23.838Z,92.11
2018-10-09T08:55:23.605Z,92.02
2018-10-09T08:56:23.885Z,92.59
2018-10-09T08:57:24.056Z,92.3
2018-10-09T08:59:23.947Z,92.07
2018-10-09T09:00:23.989Z,92.16
2018-10-09T09:01:23.991Z,90.82
2018-10-09T09:02:24.028Z,90.92
2018-10-09T09:03:23.808Z,90.92
2018-10-09T09:04:38.718Z,90.34
2018-10-09T09:05:24.081Z,90.92
2018-10-09T09:06:24.100Z,90.73
2018-10-09T09:07:24.125Z,90.06
2018-10-09T09:08:23.885Z,89.96
2018-10-09T09:09:24.171Z,90.82
2018-10-09T09:10:23.927Z,90.16
2018-10-09T09:11:24.207Z,90.63
2018-10-09T09:12:24.231Z,89.96
2018-10-09T09:13:24.258Z,90.1
2018-10-09T09:14:24.272Z,90.39
2018-10-09T09:15:24.510Z,89.96
2018-10-09T09:16:24.318Z,90.53
2018-10-09T09:17:24.337Z,90.2
2018-10-09T09:18:24.358Z,90.25
2018-10-09T09:19:24.381Z,90.3
2018-10-09T09:20:39.202Z,89.91
2018-10-09T09:21:24.599Z,90.3
2018-10-09T09:22:24.444Z,89.77
2018-10-09T09:23:24.469Z,90.01
2018-10-09T09:24:24.489Z,90.1
2018-10-09T09:25:24.252Z,89.81
2018-10-09T09:27:24.359Z,89.91
2018-10-09T09:29:24.602Z,89.34
2018-10-09T09:30:24.621Z,90.01
2018-10-09T09:31:24.643Z,89.81
2018-10-09T09:32:24.815Z,89.81
2018-10-09T09:33:24.428Z,89.72
2018-10-09T09:34:24.710Z,89.15
2018-10-09T09:35:24.731Z,88.95
2018-10-09T09:36:39.409Z,89.05
2018-10-09T09:37:24.774Z,88.62
2018-10-09T09:38:24.799Z,88.43
2018-10-09T09:39:24.818Z,87.56
2018-10-09T09:40:24.839Z,87.13
2018-10-09T09:41:24.603Z,86.08
2018-10-09T09:42:24.882Z,86.08
2018-10-09T09:43:24.908Z,85.35
2018-10-09T09:44:24.936Z,85.35
2018-10-09T09:45:24.951Z,84.49
2018-10-09T09:46:25.108Z,83.92
2018-10-09T09:47:24.839Z,83.63
2018-10-09T09:48:24.760Z,83.34
2018-10-09T09:49:25.040Z,83.82
2018-10-09T09:50:24.809Z,83.82
2018-10-09T09:51:25.085Z,84.11
2018-10-09T09:52:39.770Z,84.2
2018-10-09T09:54:25.153Z,83.53
2018-10-09T09:55:24.919Z,83.53
2018-10-09T09:56:25.198Z,83.53
2018-10-09T09:57:24.965Z,83.44
2018-10-09T09:58:25.074Z,84.01
2018-10-09T09:59:25.505Z,83.72
2018-10-09T10:01:25.315Z,84.2
2018-10-09T10:02:25.079Z,83.63
2018-10-09T10:03:25.361Z,83.72
2018-10-09T10:04:25.126Z,84.3
2018-10-09T10:05:25.149Z,83.72
2018-10-09T10:06:25.429Z,83.92
2018-10-09T10:07:40.118Z,83.72
2018-10-09T10:08:25.219Z,83.82
2018-10-09T10:09:25.666Z,84.2
2018-10-09T10:10:25.587Z,83.48
2018-10-09T10:11:25.548Z,83.19
2018-10-09T10:12:25.569Z,82.71
2018-10-09T10:13:25.595Z,82.9
2018-10-09T10:14:25.613Z,82.71
2018-10-09T10:15:25.381Z,82.81
2018-10-09T10:16:25.403Z,82.42
2018-10-09T10:19:25.730Z,81.22
2018-10-09T10:20:25.752Z,81.22
2018-10-09T10:21:25.958Z,81.12
2018-10-09T10:22:25.805Z,81.02
2018-10-09T10:23:25.563Z,80.55
2018-10-09T10:24:25.589Z,80.93
2018-10-09T10:25:25.867Z,80.55
2018-10-09T10:26:25.909Z,80.83
2018-10-09T10:27:25.917Z,80.55
2018-10-09T10:28:25.937Z,80.01
2018-10-09T10:30:25.984Z,78.86
2018-10-09T10:31:26.005Z,79.05
2018-10-09T10:32:26.033Z,79.24
2018-10-09T10:33:26.056Z,78.96
2018-10-09T10:34:25.818Z,79.82
2018-10-09T10:35:26.147Z,79.14
2018-10-09T10:36:25.915Z,78.77
2018-10-09T10:37:26.148Z,78.28
2018-10-09T10:38:26.168Z,78.19
2018-10-09T10:39:40.852Z,77.8
2018-10-09T10:40:26.218Z,77.51
2018-10-09T10:41:26.246Z,78.23
2018-10-09T10:42:26.258Z,76.79
2018-10-09T10:43:26.282Z,76.4
2018-10-09T10:44:26.308Z,76.59
2018-10-09T10:45:26.329Z,76.88
2018-10-09T10:46:26.351Z,75.54
2018-10-09T10:47:26.375Z,75.92
2018-10-09T10:48:26.409Z,75.73
2018-10-09T10:49:26.575Z,75.82
2018-10-09T10:50:26.448Z,75.63
2018-10-09T10:51:26.467Z,74.96
2018-10-09T10:52:26.493Z,75.29
2018-10-09T10:53:26.256Z,74.9
2018-10-09T10:54:26.278Z,75.57
2018-10-09T10:55:41.221Z,74.52
2018-10-09T10:56:26.590Z,74.33
2018-10-09T10:57:26.605Z,73.46
2018-10-09T10:58:26.628Z,72.73
2018-10-09T10:59:26.395Z,73.27
2018-10-09T11:00:26.677Z,73.21
2018-10-09T11:01:27.108Z,72.31
2018-10-09T11:03:26.743Z,72.83
2018-10-09T11:04:26.511Z,73.02
2018-10-09T11:05:26.797Z,73.11
2018-10-09T11:06:26.818Z,71.96
2018-10-09T11:07:26.840Z,72.16
2018-10-09T11:08:27.008Z,73.11
2018-10-09T11:09:26.889Z,73.02
2018-10-09T11:10:26.909Z,72.19
2018-10-09T11:11:41.593Z,72.09
2018-10-09T11:12:26.974Z,71.33
2018-10-09T11:13:26.984Z,70.75
2018-10-09T11:14:27.005Z,70.5
2018-10-09T11:15:26.772Z,71.42
2018-10-09T11:16:27.061Z,70.75
2018-10-09T11:17:27.080Z,69.92
2018-10-09T11:18:27.100Z,68.96
2018-10-09T11:19:27.120Z,69.06
2018-10-09T11:20:27.144Z,69.15
2018-10-09T11:21:27.655Z,68.76
2018-10-09T11:22:27.202Z,68.96
2018-10-09T11:23:27.319Z,70.46
2018-10-09T11:24:26.980Z,70.07
2018-10-09T11:25:27.004Z,69.21
2018-10-09T11:26:27.026Z,68.54
2018-10-09T11:27:41.969Z,67.8
2018-10-09T11:28:27.334Z,68.06
2018-10-09T11:29:27.358Z,67.99
2018-10-09T11:30:27.124Z,67.51
2018-10-09T11:31:27.403Z,68.09
2018-10-09T11:34:27.476Z,67.13
2018-10-09T11:35:27.498Z,67.58
2018-10-09T11:36:27.263Z,67.99
2018-10-09T11:37:27.546Z,67.61
2018-10-09T11:38:27.569Z,67.48
2018-10-09T11:39:27.597Z,66.94
2018-10-09T11:40:27.615Z,67.13
2018-10-09T11:41:27.381Z,66.94
2018-10-09T11:42:42.413Z,66.74
2018-10-09T11:43:27.688Z,66.65
2018-10-09T11:44:27.757Z,66.55
2018-10-09T11:45:27.734Z,66.55
2018-10-09T11:46:27.758Z,67.51
2018-10-09T11:47:27.779Z,66.74
2018-10-09T11:48:27.803Z,66.74
2018-10-09T11:49:27.829Z,66.46
2018-10-09T11:50:27.854Z,66.74
2018-10-09T11:52:27.898Z,67.03
2018-10-09T11:53:27.927Z,66.94
2018-10-09T11:54:27.948Z,66.97
2018-10-09T11:55:27.972Z,66.68
2018-10-09T11:56:27.735Z,65.33
2018-10-09T11:57:28.027Z,66.01
2018-10-09T11:58:28.122Z,64.76
2018-10-09T11:59:27.806Z,64.86
2018-10-09T12:00:28.090Z,64.56
2018-10-09T12:01:28.115Z,64.66
2018-10-09T12:02:28.135Z,64.86
2018-10-09T12:03:28.156Z,64.66
2018-10-09T12:04:28.184Z,65.33
2018-10-09T12:05:28.207Z,65.24
2018-10-09T12:06:28.233Z,65.33
2018-10-09T12:07:28.260Z,64.95
2018-10-09T12:08:28.279Z,64.79
2018-10-09T12:10:28.329Z,64.66
2018-10-09T12:11:28.354Z,64.69
2018-10-09T12:12:28.380Z,64.89
2018-10-09T12:13:28.395Z,64.98
2018-10-09T12:14:43.082Z,63.89
2018-10-09T12:15:28.445Z,64.47
2018-10-09T12:16:28.469Z,65.24
2018-10-09T12:17:28.493Z,65.05
2018-10-09T12:18:28.516Z,64.86
2018-10-09T12:19:28.549Z,65.14
2018-10-09T12:20:28.307Z,64.66
2018-10-09T12:21:28.793Z,63.7
2018-10-09T12:22:28.611Z,64.28
2018-10-09T12:23:28.635Z,64.37
2018-10-09T12:24:28.669Z,63.99
2018-10-09T12:25:28.691Z,63.79
2018-10-09T12:26:28.714Z,64.76
2018-10-09T12:27:28.730Z,63.89
2018-10-09T12:28:28.496Z,63.51
2018-10-09T12:29:28.521Z,64.66
2018-10-09T12:30:43.464Z,63.41
2018-10-09T12:31:28.569Z,63.41
2018-10-09T12:32:28.591Z,63.79
2018-10-09T12:33:28.877Z,64.95
2018-10-09T12:34:28.903Z,63.41
2018-10-09T12:35:28.924Z,64.37
2018-10-09T12:36:28.685Z,64.86
2018-10-09T12:37:28.969Z,63.7
2018-10-09T12:38:29.230Z,63.7
2018-10-09T12:39:28.759Z,64.28
2018-10-09T12:40:29.068Z,64.37
2018-10-09T12:41:29.065Z,63.51
2018-10-09T12:42:29.090Z,62.83
2018-10-09T12:43:29.159Z,63.31
2018-10-09T12:44:29.423Z,63.12
2018-10-09T12:45:28.902Z,62.74
2018-10-09T12:46:43.847Z,62.64
2018-10-09T12:47:29.208Z,62.45
2018-10-09T12:48:29.230Z,63.31
2018-10-09T12:49:29.253Z,63.79
2018-10-09T12:50:29.279Z,63.79
2018-10-09T12:51:29.312Z,63.67
2018-10-09T12:52:29.326Z,63.51
2018-10-09T12:53:29.352Z,62.45
2018-10-09T12:54:29.381Z,62.83
2018-10-09T12:55:29.142Z,63.41
2018-10-09T12:56:29.433Z,63.31
2018-10-09T12:57:29.445Z,63.51
2018-10-09T12:58:29.611Z,63.7
2018-10-09T12:59:29.491Z,63.41
2018-10-09T13:00:29.524Z,63.31
2018-10-09T13:01:29.541Z,64.37
2018-10-09T13:02:44.226Z,64.37
2018-10-09T13:03:29.590Z,64.47
2018-10-09T13:04:29.613Z,64.47
2018-10-09T13:05:29.382Z,63.7
2018-10-09T13:06:29.659Z,63.7
2018-10-09T13:07:29.683Z,64.08
2018-10-09T13:08:29.707Z,64.08
2018-10-09T13:09:29.562Z,64.66
2018-10-09T13:10:29.755Z,64.37
2018-10-09T13:11:29.521Z,63.99
2018-10-09T13:12:29.802Z,63.79
2018-10-09T13:13:29.568Z,63.41
2018-10-09T13:14:29.852Z,63.31
2018-10-09T13:15:29.876Z,63.51
2018-10-09T13:16:29.998Z,63.31
2018-10-09T13:17:44.625Z,63.51
2018-10-09T13:18:29.688Z,63.41
2018-10-09T13:19:29.970Z,63.51
2018-10-09T13:20:29.996Z,63.6
2018-10-09T13:21:30.703Z,63.79
2018-10-09T13:22:30.868Z,64.86
2018-10-09T13:23:30.066Z,63.7
2018-10-09T13:24:30.089Z,64.66
2018-10-09T13:26:30.134Z,64.95
2018-10-09T13:27:30.163Z,64.56
2018-10-09T13:28:29.926Z,64.56
2018-10-09T13:29:30.207Z,65.24
2018-10-09T13:30:29.974Z,65.53
2018-10-09T13:31:30.261Z,65.81
2018-10-09T13:32:30.380Z,65.05
2018-10-09T13:33:30.304Z,65.81
2018-10-09T13:34:30.110Z,65.43
2018-10-09T13:35:30.360Z,65.63
2018-10-09T13:36:30.376Z,65.53